Time;durP1;ratioP1;P1;durP2;ratioP2;P2;SDS_P1;SDS_P2;PMS_P1;PMS_P2;Temp;Humidity;BMP_temperature;BMP_pressure;BME280_temperature;BME280_humidity;BME280_pressure;Samples;Min_cycle;Max_cycle;Signal;HPM_P1;HPM_P2
2022/07/22 00:00:24;;;;;;;1.90;1.38;;;;;;;28.05;38.70;99258.94;5079115;28;20044;-70
2022/07/22 00:02:50;;;;;;;1.67;1.27;;;;;;;28.12;38.54;99256.00;5070661;28;20466;-70
2022/07/22 00:05:15;;;;;;;1.40;1.10;;;;;;;28.17;38.56;99258.34;5069612;28;20037;-70
2022/07/22 00:07:43;;;;;;;2.05;1.40;;;;;;;28.23;38.36;99251.78;5079076;28;20059;-70
2022/07/22 00:10:10;;;;;;;2.38;1.30;;;;;;;28.23;38.19;99248.19;5069421;28;20132;-70
2022/07/22 00:12:37;;;;;;;1.85;1.20;;;;;;;28.27;38.11;99257.34;5072602;28;20119;-70
2022/07/22 00:15:04;;;;;;;2.08;1.33;;;;;;;28.30;37.88;99256.53;5073260;28;20040;-70
2022/07/22 00:17:30;;;;;;;3.08;1.20;;;;;;;28.34;37.96;99246.00;5083745;28;20056;-69
2022/07/22 00:19:55;;;;;;;2.03;1.27;;;;;;;28.33;37.87;99252.84;5071105;28;20045;-70
2022/07/22 00:22:21;;;;;;;2.25;1.40;;;;;;;28.38;37.88;99249.53;5081419;28;20044;-70
2022/07/22 00:24:46;;;;;;;1.88;1.17;;;;;;;28.39;37.88;99251.13;5080821;28;20044;-70
2022/07/22 00:27:12;;;;;;;1.73;1.20;;;;;;;28.38;37.76;99245.94;5076901;28;20534;-70
2022/07/22 00:29:37;;;;;;;1.95;1.35;;;;;;;28.19;38.37;99251.06;5074971;28;20490;-70
2022/07/22 00:32:03;;;;;;;2.25;1.27;;;;;;;28.07;38.50;99242.44;5076451;28;20044;-59
2022/07/22 00:34:28;;;;;;;1.77;1.20;;;;;;;28.04;38.61;99249.72;5071690;28;20072;-59
2022/07/22 00:36:53;;;;;;;1.88;1.45;;;;;;;28.10;38.51;99244.41;5074307;28;20309;-59
2022/07/22 00:39:21;;;;;;;1.80;1.08;;;;;;;28.16;38.21;99245.50;5080566;28;20407;-70
2022/07/22 00:41:46;;;;;;;1.77;1.20;;;;;;;28.21;38.12;99239.38;5074318;28;20076;-70
2022/07/22 00:44:12;;;;;;;2.00;1.20;;;;;;;28.22;37.93;99240.97;5077026;28;20135;-70
2022/07/22 00:46:38;;;;;;;2.13;1.30;;;;;;;28.28;38.07;99244.88;5076633;28;20476;-59
2022/07/22 00:49:06;;;;;;;1.80;1.30;;;;;;;28.31;37.93;99244.03;5073295;28;20071;-70
2022/07/22 00:51:32;;;;;;;1.85;1.30;;;;;;;28.34;37.96;99240.34;5073065;28;20060;-59
2022/07/22 00:53:59;;;;;;;1.88;1.15;;;;;;;28.21;36.96;99245.78;5078362;28;20043;-70
2022/07/22 00:56:26;;;;;;;1.90;1.40;;;;;;;28.08;38.84;99241.25;5085094;28;20032;-59
2022/07/22 00:58:55;;;;;;;2.10;1.38;;;;;;;27.98;38.72;99240.97;5078657;28;20036;-59
2022/07/22 01:01:20;;;;;;;1.85;1.20;;;;;;;28.00;38.73;99242.56;5071668;28;20128;-59
2022/07/22 01:03:46;;;;;;;1.73;1.20;;;;;;;28.07;38.38;99239.63;5072402;28;20131;-70
2022/07/22 01:06:11;;;;;;;2.17;1.33;;;;;;;28.12;38.49;99239.13;5071277;28;20145;-70
2022/07/22 01:08:39;;;;;;;1.88;1.35;;;;;;;28.18;38.31;99240.25;5070241;28;20416;-70
2022/07/22 01:11:15;;;;;;;1.70;1.20;;;;;;;28.22;38.19;99232.53;5071568;28;20122;-70
2022/07/22 01:13:42;;;;;;;1.70;1.30;;;;;;;28.29;38.05;99240.84;5075444;28;20181;-60
2022/07/22 01:16:09;;;;;;;2.17;1.20;;;;;;;28.30;37.93;99236.84;5072786;28;20510;-70
2022/07/22 01:18:37;;;;;;;1.98;1.40;;;;;;;28.23;37.69;99229.28;5089547;28;20126;-70
2022/07/22 01:21:03;;;;;;;1.42;1.13;;;;;;;28.10;38.17;99230.34;5079518;28;20090;-70
2022/07/22 01:23:29;;;;;;;2.10;1.40;;;;;;;28.01;38.93;99235.75;5086160;28;20050;-59
2022/07/22 01:25:54;;;;;;;1.98;1.17;;;;;;;28.02;38.53;99238.13;5073784;28;20040;-59
2022/07/22 01:28:20;;;;;;;1.75;1.30;;;;;;;28.05;38.68;99231.63;5082001;28;20113;-59
2022/07/22 01:30:46;;;;;;;1.58;1.17;;;;;;;28.11;38.39;99223.50;5071683;28;20064;-70
2022/07/22 01:33:12;;;;;;;1.90;1.30;;;;;;;28.16;38.40;99225.81;5076121;28;20113;-70
2022/07/22 01:35:37;;;;;;;1.92;1.30;;;;;;;28.21;38.26;99222.50;5081486;28;20518;-70
2022/07/22 01:38:03;;;;;;;1.80;1.23;;;;;;;28.27;38.16;99226.41;5078897;28;20059;-59
2022/07/22 01:40:28;;;;;;;1.95;1.40;;;;;;;28.30;37.90;99225.59;5079981;28;20094;-70
2022/07/22 01:42:54;;;;;;;1.90;1.30;;;;;;;28.33;38.10;99229.53;5075037;28;20120;-70
2022/07/22 01:45:19;;;;;;;1.80;1.23;;;;;;;28.33;37.76;99219.09;5071108;28;20049;-60
2022/07/22 01:47:45;;;;;;;2.20;1.50;;;;;;;28.36;38.16;99234.28;5070466;28;20047;-59
2022/07/22 01:50:14;;;;;;;2.13;1.35;;;;;;;28.37;37.73;99228.25;5070770;28;20044;-59
2022/07/22 01:52:39;;;;;;;2.00;1.20;;;;;;;28.41;38.01;99234.59;5071488;28;20086;-60
2022/07/22 01:55:06;;;;;;;1.70;1.30;;;;;;;28.35;37.59;99227.88;5082777;28;20041;-59
2022/07/22 01:57:32;;;;;;;2.00;1.38;;;;;;;28.22;38.44;99230.53;5072118;28;20037;-59
2022/07/22 01:59:57;;;;;;;1.80;1.23;;;;;;;28.08;38.41;99232.81;5072335;28;20035;-70
2022/07/22 02:02:23;;;;;;;1.80;1.20;;;;;;;28.03;38.50;99238.91;5073436;28;20396;-60
2022/07/22 02:04:48;;;;;;;1.90;1.40;;;;;;;28.02;38.60;99229.69;5081982;28;20097;-59
2022/07/22 02:07:14;;;;;;;1.67;1.17;;;;;;;28.06;38.66;99229.59;5069026;28;20044;-60
2022/07/22 02:09:39;;;;;;;1.48;1.10;;;;;;;28.12;38.37;99234.31;5078724;28;20543;-59
2022/07/22 02:12:05;;;;;;;2.08;1.42;;;;;;;28.17;38.20;99224.59;5080008;28;20051;-59
2022/07/22 02:14:30;;;;;;;1.70;1.25;;;;;;;28.18;38.39;99229.78;5099704;28;20036;-60
2022/07/22 02:16:56;;;;;;;1.52;1.20;;;;;;;28.21;38.09;99222.50;5102681;28;20130;-60
2022/07/22 02:19:21;;;;;;;1.90;1.45;;;;;;;28.22;38.25;99226.91;5101728;28;20843;-70
2022/07/22 02:21:47;;;;;;;1.73;1.25;;;;;;;28.25;38.33;99228.84;5089890;28;20415;-70
2022/07/22 02:24:12;;;;;;;2.20;1.45;;;;;;;28.28;38.01;99233.59;5096175;28;20059;-59
2022/07/22 02:26:38;;;;;;;1.60;1.15;;;;;;;28.29;38.13;99229.59;5104109;28;20067;-60
2022/07/22 02:29:03;;;;;;;1.98;1.45;;;;;;;28.35;38.20;99225.06;5090221;28;20526;-70
2022/07/22 02:31:29;;;;;;;1.92;1.45;;;;;;;28.37;38.04;99219.81;5102010;28;20048;-59
2022/07/22 02:33:54;;;;;;;1.83;1.35;;;;;;;28.41;37.94;99228.97;5096990;28;20047;-60
2022/07/22 02:36:20;;;;;;;1.77;1.25;;;;;;;28.38;37.96;99227.03;5098097;28;20039;-60
2022/07/22 02:38:45;;;;;;;1.67;1.20;;;;;;;28.36;38.20;99229.50;5108065;28;20457;-59
2022/07/22 02:41:11;;;;;;;1.98;1.42;;;;;;;28.35;37.83;99224.28;5105482;28;20042;-59
2022/07/22 02:43:36;;;;;;;2.08;1.58;;;;;;;28.31;38.13;99218.72;5106114;28;20036;-70
2022/07/22 02:46:02;;;;;;;1.80;1.30;;;;;;;28.36;38.12;99225.84;5100781;28;20560;-59
2022/07/22 02:48:27;;;;;;;1.77;1.30;;;;;;;28.35;38.01;99227.09;5093108;28;20036;-60
2022/07/22 02:50:53;;;;;;;1.80;1.30;;;;;;;28.36;38.28;99223.88;5105408;28;20060;-60
2022/07/22 02:53:18;;;;;;;1.95;1.35;;;;;;;28.38;38.19;99224.22;5099778;28;20138;-60
2022/07/22 02:55:44;;;;;;;1.90;1.27;;;;;;;28.43;38.10;99234.16;5097530;28;20415;-60
2022/07/22 02:58:09;;;;;;;1.92;1.23;;;;;;;28.43;38.08;99226.53;5100594;28;20036;-59
2022/07/22 03:00:37;;;;;;;2.15;1.40;;;;;;;28.41;38.10;99226.16;5103129;28;20407;-59
2022/07/22 03:03:03;;;;;;;1.80;1.40;;;;;;;28.43;38.27;99226.53;5097174;28;20483;-70
2022/07/22 03:05:29;;;;;;;2.10;1.40;;;;;;;28.38;37.94;99220.63;5096772;28;20058;-70
2022/07/22 03:07:55;;;;;;;1.88;1.33;;;;;;;28.31;38.36;99227.16;5090858;28;20044;-70
2022/07/22 03:10:20;;;;;;;2.08;1.52;;;;;;;28.18;38.46;99226.97;5101898;28;20039;-70
2022/07/22 03:12:46;;;;;;;1.95;1.40;;;;;;;28.05;38.83;99226.00;5094253;28;20036;-69
2022/07/22 03:15:11;;;;;;;1.70;1.20;;;;;;;28.00;39.08;99222.88;5099892;28;20176;-70
2022/07/22 03:17:37;;;;;;;2.05;1.40;;;;;;;27.98;39.12;99229.72;5101961;28;20160;-59
2022/07/22 03:20:08;;;;;;;1.85;1.30;;;;;;;28.05;39.16;99230.84;5091701;28;20040;-70
2022/07/22 03:22:34;;;;;;;1.90;1.30;;;;;;;28.11;39.01;99229.91;5090768;28;20092;-70
2022/07/22 03:24:59;;;;;;;1.75;1.20;;;;;;;28.19;38.85;99224.94;5091398;28;20048;-70
2022/07/22 03:27:25;;;;;;;1.88;1.20;;;;;;;28.20;38.65;99229.34;5092432;28;20046;-60
2022/07/22 03:29:50;;;;;;;1.85;1.27;;;;;;;28.24;38.85;99230.09;5103607;28;20454;-59
2022/07/22 03:32:16;;;;;;;2.10;1.30;;;;;;;28.25;38.64;99235.28;5088320;28;20131;-59
2022/07/22 03:34:41;;;;;;;1.90;1.38;;;;;;;28.29;38.60;99240.84;5091812;28;20119;-70
2022/07/22 03:37:07;;;;;;;1.77;1.30;;;;;;;28.32;38.43;99234.38;5102007;28;20117;-60
2022/07/22 03:39:32;;;;;;;2.15;1.42;;;;;;;28.32;38.57;99237.19;5103112;28;20044;-69
2022/07/22 03:41:57;;;;;;;1.85;1.33;;;;;;;28.35;38.96;99241.16;5094693;28;20050;-60
2022/07/22 03:44:23;;;;;;;1.80;1.23;;;;;;;28.33;38.58;99235.97;5103262;28;20498;-70
2022/07/22 03:46:48;;;;;;;2.00;1.33;;;;;;;28.32;38.36;99242.81;5090494;28;20411;-59
2022/07/22 03:49:14;;;;;;;1.75;1.35;;;;;;;28.37;38.50;99249.97;5088658;28;20407;-70
2022/07/22 03:51:39;;;;;;;2.00;1.40;;;;;;;28.38;38.62;99245.94;5095961;28;20040;-70
2022/07/22 03:54:05;;;;;;;2.20;1.52;;;;;;;28.27;38.39;99243.28;5089225;28;20044;-70
2022/07/22 03:56:31;;;;;;;1.63;1.20;;;;;;;28.14;37.98;99245.13;5088629;28;20385;-70
2022/07/22 03:58:56;;;;;;;1.95;1.42;;;;;;;28.04;39.22;99248.94;5100775;28;20404;-70
2022/07/22 04:01:22;;;;;;;1.80;1.30;;;;;;;28.00;39.29;99251.00;5104274;28;20051;-59
2022/07/22 04:03:48;;;;;;;1.60;1.20;;;;;;;28.00;39.20;99245.38;5100296;28;20032;-59
2022/07/22 04:06:14;;;;;;;1.80;1.40;;;;;;;28.08;38.98;99252.50;5093159;28;20048;-70
2022/07/22 04:08:39;;;;;;;1.70;1.10;;;;;;;28.11;39.08;99251.63;5097542;28;20119;-70
2022/07/22 04:11:05;;;;;;;1.90;1.40;;;;;;;28.11;39.06;99251.63;5093187;28;20057;-59
2022/07/22 04:13:30;;;;;;;2.00;1.40;;;;;;;28.16;39.03;99248.31;5088480;28;20395;-60
2022/07/22 04:15:56;;;;;;;2.13;1.42;;;;;;;28.19;38.81;99239.81;5077898;28;20043;-70
2022/07/22 04:18:21;;;;;;;1.80;1.25;;;;;;;28.26;38.86;99250.13;5096111;28;20579;-59
2022/07/22 04:20:47;;;;;;;1.70;1.30;;;;;;;28.27;38.73;99256.56;5101127;28;20047;-59
2022/07/22 04:23:12;;;;;;;1.55;1.20;;;;;;;28.29;38.94;99242.84;5093794;28;20563;-70
2022/07/22 04:25:38;;;;;;;1.98;1.42;;;;;;;28.29;38.74;99252.09;5105405;28;20047;-70
2022/07/22 04:28:03;;;;;;;1.67;1.30;;;;;;;28.30;38.84;99242.47;5089008;28;20040;-69
2022/07/22 04:30:29;;;;;;;2.28;1.58;;;;;;;28.36;38.76;99246.38;5094485;28;20048;-70
2022/07/22 04:32:54;;;;;;;1.88;1.40;;;;;;;28.39;38.64;99250.34;5106653;28;20039;-59
2022/07/22 04:35:20;;;;;;;2.00;1.30;;;;;;;28.32;38.54;99259.69;5102516;28;20039;-59
2022/07/22 04:37:45;;;;;;;2.10;1.20;;;;;;;28.31;38.76;99254.50;5097301;28;20546;-60
2022/07/22 04:40:11;;;;;;;1.95;1.30;;;;;;;28.31;38.63;99255.31;5101548;28;20092;-59
2022/07/22 04:42:36;;;;;;;2.10;1.40;;;;;;;28.35;38.71;99253.19;5107529;28;20051;-59
2022/07/22 04:45:02;;;;;;;2.08;1.38;;;;;;;28.38;38.62;99255.16;5104213;28;20055;-59
2022/07/22 04:47:28;;;;;;;1.85;1.23;;;;;;;28.41;38.75;99253.50;5107876;28;20039;-60
2022/07/22 04:49:53;;;;;;;1.90;1.40;;;;;;;28.42;38.70;99249.47;5106155;28;20119;-70
2022/07/22 04:52:19;;;;;;;1.83;1.40;;;;;;;28.36;38.74;99248.38;5097051;28;20037;-70
2022/07/22 04:54:44;;;;;;;1.83;1.35;;;;;;;28.32;38.75;99245.63;5101370;28;20047;-70
2022/07/22 04:57:09;;;;;;;2.05;1.40;;;;;;;28.18;39.39;99243.06;5111040;28;20035;-59
2022/07/22 04:59:35;;;;;;;2.20;1.50;;;;;;;28.09;39.59;99251.25;5093908;28;20047;-60
2022/07/22 05:02:00;;;;;;;1.83;1.20;;;;;;;28.03;39.70;99250.16;5096517;28;20048;-70
2022/07/22 05:04:26;;;;;;;1.80;1.27;;;;;;;28.09;39.58;99254.06;5099711;28;20134;-70
2022/07/22 05:06:51;;;;;;;1.75;1.30;;;;;;;28.17;39.50;99241.47;5110122;28;20059;-59
2022/07/22 05:09:17;;;;;;;1.67;1.30;;;;;;;28.23;39.45;99248.19;5100821;28;20557;-70
2022/07/22 05:11:42;;;;;;;1.92;1.45;;;;;;;28.26;39.24;99250.13;5105675;28;20067;-59
2022/07/22 05:14:07;;;;;;;1.58;1.10;;;;;;;28.31;39.23;99249.69;5092030;28;20044;-59
2022/07/22 05:16:37;;;;;;;2.15;1.50;;;;;;;28.41;39.12;99253.50;5105674;28;20040;-60
2022/07/22 05:19:03;;;;;;;2.05;1.45;;;;;;;28.40;39.36;99257.53;5096299;28;20064;-70
2022/07/22 05:21:28;;;;;;;1.80;1.30;;;;;;;28.39;39.07;99251.13;5100382;28;20115;-59
2022/07/22 05:23:54;;;;;;;2.10;1.50;;;;;;;28.41;38.80;99253.50;5104428;28;20040;-70
2022/07/22 05:26:19;;;;;;;2.00;1.40;;;;;;;28.30;39.24;99247.28;5096438;28;20085;-60
2022/07/22 05:28:45;;;;;;;1.67;1.20;;;;;;;28.16;39.61;99253.94;5101920;28;20040;-59
2022/07/22 05:31:10;;;;;;;2.70;1.60;;;;;;;28.05;40.10;99248.50;5107300;28;20106;-70
2022/07/22 05:33:35;;;;;;;1.92;1.38;;;;;;;28.03;40.25;99255.78;5103322;28;20073;-59
2022/07/22 05:36:02;;;;;;;14.80;1.85;;;;;;;28.08;40.60;99261.72;5096656;28;20044;-59
2022/07/22 05:38:27;;;;;;;12.32;2.10;;;;;;;28.17;40.48;99259.13;5102163;28;20044;-59
2022/07/22 05:40:53;;;;;;;11.70;2.20;;;;;;;28.23;40.35;99253.81;5094400;28;20048;-59
2022/07/22 05:43:19;;;;;;;14.43;2.00;;;;;;;28.28;40.17;99258.94;5091321;28;20123;-59
2022/07/22 05:45:44;;;;;;;10.18;1.88;;;;;;;28.33;40.06;99260.50;5090883;28;20059;-60
2022/07/22 05:48:10;;;;;;;10.10;1.80;;;;;;;28.38;39.90;99260.78;5104637;28;20044;-59
2022/07/22 05:50:36;;;;;;;8.23;2.10;;;;;;;28.42;39.72;99250.25;5102046;28;20050;-59
2022/07/22 05:53:01;;;;;;;4.82;1.60;;;;;;;28.41;39.81;99259.91;5106987;28;20131;-73
2022/07/22 05:55:27;;;;;;;9.23;1.88;;;;;;;28.40;39.70;99263.97;5090975;28;20166;-59
2022/07/22 05:57:52;;;;;;;4.07;1.73;;;;;;;28.35;39.68;99267.25;5093815;28;20044;-74
2022/07/22 06:00:18;;;;;;;6.35;1.60;;;;;;;28.23;39.92;99265.06;5099991;28;20034;-73
2022/07/22 06:02:43;;;;;;;3.95;1.60;;;;;;;28.13;40.27;99266.81;5091686;28;20527;-74
2022/07/22 06:05:08;;;;;;;3.88;1.50;;;;;;;28.15;40.21;99260.78;5099364;28;20043;-73
2022/07/22 06:07:34;;;;;;;3.75;1.40;;;;;;;28.23;39.99;99262.25;5103789;28;20032;-59
2022/07/22 06:09:59;;;;;;;3.47;1.80;;;;;;;28.31;39.78;99257.31;5093563;28;20427;-59
2022/07/22 06:12:25;;;;;;;5.07;1.63;;;;;;;28.38;39.59;99260.78;5096141;28;20039;-73
2022/07/22 06:14:50;;;;;;;2.83;1.65;;;;;;;28.43;39.62;99253.84;5102361;28;20044;-73
2022/07/22 06:17:16;;;;;;;6.07;1.70;;;;;;;28.49;39.50;99252.13;5093882;28;20350;-73
2022/07/22 06:19:41;;;;;;;3.45;1.60;;;;;;;28.55;39.22;99260.88;5092886;28;20250;-73
2022/07/22 06:22:06;;;;;;;2.67;1.40;;;;;;;28.52;38.54;99266.16;5104552;28;20126;-59
2022/07/22 06:24:32;;;;;;;3.67;1.45;;;;;;;28.42;39.65;99261.50;5107977;28;20043;-73
2022/07/22 06:26:57;;;;;;;2.42;1.45;;;;;;;28.33;39.67;99258.47;5108491;28;20156;-59
2022/07/22 06:29:23;;;;;;;4.80;1.55;;;;;;;28.34;39.65;99268.50;5090434;28;20051;-59
2022/07/22 06:31:48;;;;;;;2.38;1.50;;;;;;;28.37;39.36;99259.22;5098951;28;20051;-59
2022/07/22 06:34:14;;;;;;;3.60;1.75;;;;;;;28.43;39.26;99259.47;5103638;28;20075;-59
2022/07/22 06:36:39;;;;;;;3.03;1.55;;;;;;;28.52;39.08;99259.72;5096665;28;20040;-74
2022/07/22 06:39:05;;;;;;;2.17;1.50;;;;;;;28.53;38.93;99266.94;5094102;28;20028;-73
2022/07/22 06:41:30;;;;;;;2.15;1.40;;;;;;;28.59;38.66;99255.97;5093253;28;20059;-59
2022/07/22 06:43:56;;;;;;;2.08;1.50;;;;;;;28.45;38.51;99252.22;5099973;28;20055;-73
2022/07/22 06:46:21;;;;;;;2.72;1.58;;;;;;;28.39;39.38;99262.38;5094240;28;20043;-59
2022/07/22 06:48:46;;;;;;;2.45;1.50;;;;;;;28.31;39.44;99258.13;5100599;28;20052;-59
2022/07/22 06:51:12;;;;;;;2.10;1.50;;;;;;;28.28;39.31;99258.13;5090053;28;20044;-61
2022/07/22 06:53:37;;;;;;;2.60;1.63;;;;;;;28.36;39.46;99260.44;5097426;28;20043;-59
2022/07/22 06:56:03;;;;;;;2.50;1.80;;;;;;;28.42;39.17;99261.50;5105019;28;20176;-60
2022/07/22 06:58:29;;;;;;;3.22;1.90;;;;;;;28.48;39.25;99262.59;5099182;28;20094;-59
2022/07/22 07:00:54;;;;;;;2.17;1.50;;;;;;;28.52;38.64;99263.34;5101435;28;20044;-59
2022/07/22 07:03:21;;;;;;;2.35;1.50;;;;;;;28.43;38.33;99260.31;5095208;28;20044;-62
2022/07/22 07:05:47;;;;;;;2.10;1.48;;;;;;;28.25;39.57;99257.78;5094348;28;20044;-60
2022/07/22 07:08:12;;;;;;;2.38;1.42;;;;;;;28.13;40.41;99258.38;5090646;28;20788;-75
2022/07/22 07:10:37;;;;;;;3.50;1.40;;;;;;;28.10;39.59;99252.84;5096502;28;20046;-72
2022/07/22 07:13:03;;;;;;;2.42;1.73;;;;;;;28.07;40.39;99256.50;5099791;28;20043;-73
2022/07/22 07:15:28;;;;;;;2.22;1.60;;;;;;;28.09;41.15;99248.44;5099384;28;20490;-74
2022/07/22 07:17:56;;;;;;;4.22;1.50;;;;;;;28.12;41.13;99248.38;5091121;28;20495;-76
2022/07/22 07:20:23;;;;;;;3.10;1.60;;;;;;;28.09;39.15;99251.25;5090856;28;20069;-71
2022/07/22 07:22:48;;;;;;;2.58;1.63;;;;;;;28.04;40.80;99246.13;5095529;28;20036;-76
2022/07/22 07:25:15;;;;;;;3.35;1.90;;;;;;;28.09;41.34;99249.25;5094797;28;20391;-57
2022/07/22 07:27:40;;;;;;;2.65;1.77;;;;;;;28.15;40.47;99238.31;5096937;28;20058;-70
2022/07/22 07:30:08;;;;;;;2.80;1.80;;;;;;;28.10;39.37;99238.78;5092251;28;20403;-73
2022/07/22 07:32:34;;;;;;;2.75;1.83;;;;;;;28.04;41.67;99235.66;5097839;28;20027;-58
2022/07/22 07:35:00;;;;;;;4.45;1.95;;;;;;;28.06;41.80;99232.41;5098738;28;20043;-59
2022/07/22 07:37:25;;;;;;;2.90;2.10;;;;;;;27.94;41.49;99237.44;5099679;28;20039;-58
2022/07/22 07:39:50;;;;;;;5.75;1.90;;;;;;;27.97;42.31;99233.78;5100563;28;20047;-59
2022/07/22 07:42:16;;;;;;;2.95;1.90;;;;;;;27.96;40.80;99235.00;5094105;28;20043;-74
2022/07/22 07:44:41;;;;;;;3.08;1.98;;;;;;;27.94;42.32;99226.19;5097476;28;20060;-60
2022/07/22 07:47:07;;;;;;;2.88;1.80;;;;;;;28.02;41.35;99228.88;5096334;28;20039;-59
2022/07/22 07:49:32;;;;;;;2.63;1.80;;;;;;;27.92;42.18;99214.56;5108037;28;20491;-80
2022/07/22 07:51:58;;;;;;;2.63;1.65;;;;;;;27.95;42.38;99219.34;5098764;28;20532;-75
2022/07/22 07:54:23;;;;;;;4.90;1.90;;;;;;;27.92;40.87;99217.38;5096665;28;20043;-73
2022/07/22 07:56:49;;;;;;;3.28;1.85;;;;;;;27.91;42.40;99218.59;5103205;28;20028;-60
2022/07/22 07:59:16;;;;;;;3.08;1.95;;;;;;;27.91;41.25;99226.25;5096847;28;20031;-75
2022/07/22 08:01:42;;;;;;;2.50;1.70;;;;;;;27.84;42.15;99215.94;5099586;28;20048;-71
2022/07/22 08:04:07;;;;;;;4.07;1.80;;;;;;;27.85;42.57;99217.50;5102089;28;20044;-71
2022/07/22 08:06:33;;;;;;;3.97;1.75;;;;;;;27.85;40.90;99217.50;5079425;28;20473;-59
2022/07/22 08:08:58;;;;;;;3.35;1.85;;;;;;;27.84;42.24;99212.31;5074901;28;20040;-59
2022/07/22 08:11:24;;;;;;;5.30;2.08;;;;;;;27.89;41.47;99209.81;5099141;28;20039;-74
2022/07/22 08:13:49;;;;;;;2.08;1.58;;;;;;;27.79;42.19;99208.00;5103089;28;20046;-77
2022/07/22 08:16:15;;;;;;;2.35;1.67;;;;;;;27.83;42.43;99213.53;5092016;28;20052;-61
2022/07/22 08:18:41;;;;;;;5.13;1.80;;;;;;;27.82;40.62;99207.13;5088426;28;20043;-60
2022/07/22 08:21:07;;;;;;;6.28;2.22;;;;;;;27.78;42.19;99200.75;5094246;28;20054;-75
2022/07/22 08:23:33;;;;;;;4.00;1.88;;;;;;;27.80;40.98;99203.16;5091031;28;20039;-77
2022/07/22 08:25:58;;;;;;;4.88;2.13;;;;;;;27.76;42.26;99197.59;5090538;28;20054;-60
2022/07/22 08:28:24;;;;;;;2.92;2.30;;;;;;;27.88;41.91;99197.00;5092479;28;20044;-73
2022/07/22 08:30:50;;;;;;;3.65;2.10;;;;;;;27.82;41.62;99195.09;5093256;28;20102;-59
2022/07/22 08:33:16;;;;;;;2.47;1.88;;;;;;;27.84;41.89;99196.25;5093063;28;20051;-61
2022/07/22 08:35:42;;;;;;;2.67;1.70;;;;;;;27.83;40.84;99191.06;5094491;28;20059;-60
2022/07/22 08:38:08;;;;;;;3.10;1.95;;;;;;;27.82;41.97;99201.50;5098041;28;20044;-61
2022/07/22 08:40:33;;;;;;;2.78;1.90;;;;;;;27.90;41.59;99193.75;5094564;28;20077;-61
2022/07/22 08:43:02;;;;;;;2.30;1.70;;;;;;;27.91;40.75;99193.31;5073592;28;20040;-60
2022/07/22 08:45:29;;;;;;;2.28;1.75;;;;;;;27.85;41.23;99197.03;5094819;28;20053;-60
2022/07/22 08:47:55;;;;;;;4.63;1.95;;;;;;;27.84;41.81;99190.63;5093638;28;20044;-60
2022/07/22 08:50:20;;;;;;;2.55;1.83;;;;;;;27.84;40.70;99176.56;5100521;28;20044;-60
2022/07/22 08:52:46;;;;;;;2.95;1.90;;;;;;;27.81;41.78;99174.63;5096013;28;20052;-60
2022/07/22 08:55:11;;;;;;;2.92;2.08;;;;;;;27.85;41.73;99174.56;5098546;28;20051;-76
2022/07/22 08:57:37;;;;;;;2.40;1.70;;;;;;;27.81;40.30;99177.44;5095368;28;20056;-60
2022/07/22 09:00:10;;;;;;;2.25;1.83;;;;;;;27.81;41.74;99171.81;5096674;28;20047;-60
2022/07/22 09:02:38;;;;;;;2.22;1.70;;;;;;;27.84;40.76;99168.13;5091035;28;20071;-60
2022/07/22 09:05:05;;;;;;;3.95;1.70;;;;;;;27.81;41.20;99163.38;5095769;28;20546;-60
2022/07/22 09:07:34;;;;;;;2.28;1.60;;;;;;;27.83;41.63;99160.16;5071518;28;20067;-65
2022/07/22 09:10:01;;;;;;;2.70;1.70;;;;;;;27.84;40.27;99159.72;5092686;28;20491;-59
2022/07/22 09:12:31;;;;;;;3.03;1.95;;;;;;;27.80;41.57;99152.59;5094707;28;20040;-61
2022/07/22 09:14:58;;;;;;;4.32;1.45;;;;;;;27.83;40.46;99146.88;5096650;28;20514;-62
2022/07/22 09:17:31;;;;;;;4.20;2.40;;;;;;;27.80;41.51;99152.59;5091900;28;20498;-61
2022/07/22 09:19:59;;;;;;;3.85;2.67;;;;;;;27.84;41.45;99148.47;5094515;28;20797;-60
2022/07/22 09:22:35;;;;;;;4.25;3.05;;;;;;;27.76;40.26;99141.38;5091703;28;20074;-61
2022/07/22 09:25:23;;;;;;;3.40;2.53;;;;;;;27.74;41.62;99138.22;5092994;28;20043;-71
2022/07/22 09:27:51;;;;;;;4.22;3.15;;;;;;;27.78;41.51;99133.31;5094154;28;20075;-69
2022/07/22 09:30:26;;;;;;;4.68;3.10;;;;;;;27.83;40.42;99130.00;5094558;28;20576;-69
2022/07/22 09:32:54;;;;;;;5.57;3.03;;;;;;;27.78;39.17;99127.69;5091362;28;20044;-70
2022/07/22 09:35:20;;;;;;;5.85;3.35;;;;;;;27.75;41.51;99131.38;5096746;28;20073;-70
2022/07/22 09:37:54;;;;;;;5.28;3.03;;;;;;;27.78;41.07;99124.09;5097094;28;20039;-69
2022/07/22 09:40:30;;;;;;;5.55;3.05;;;;;;;27.70;40.98;99126.25;5075887;28;20058;-68
2022/07/22 09:43:00;;;;;;;8.18;2.90;;;;;;;27.72;41.56;99126.63;5096692;28;20134;-73
2022/07/22 09:45:27;;;;;;;8.45;3.08;;;;;;;27.79;40.37;99123.69;5092167;28;20052;-79
2022/07/22 09:47:54;;;;;;;5.55;2.58;;;;;;;27.70;41.47;99117.81;5089957;28;20560;-62
2022/07/22 09:50:23;;;;;;;6.00;2.90;;;;;;;27.77;41.82;99120.50;5070342;28;20813;-74
2022/07/22 09:52:51;;;;;;;4.80;2.92;;;;;;;27.77;40.44;99119.69;5087630;28;20557;-75
2022/07/22 09:55:18;;;;;;;4.28;2.90;;;;;;;27.74;41.59;99112.94;5090419;28;20058;-61
2022/07/22 09:57:44;;;;;;;3.58;2.45;;;;;;;27.82;41.68;99107.97;5070074;28;20408;-61
2022/07/22 10:00:11;;;;;;;3.38;2.40;;;;;;;27.89;40.50;99107.81;5091772;28;20576;-71
2022/07/22 10:02:45;;;;;;;3.17;2.35;;;;;;;27.80;39.17;99099.19;5089415;28;20805;-73
2022/07/22 10:05:12;;;;;;;3.17;2.20;;;;;;;27.80;41.05;99102.78;5088903;28;20059;-71
2022/07/22 10:07:39;;;;;;;4.78;2.50;;;;;;;27.81;40.88;99100.75;5086252;28;20050;-60
2022/07/22 10:10:05;;;;;;;3.63;2.42;;;;;;;27.69;39.61;99090.94;5084717;28;20044;-61
2022/07/22 10:12:31;;;;;;;3.22;2.28;;;;;;;27.68;41.55;99089.34;5080177;28;20272;-60
2022/07/22 10:14:56;;;;;;;4.53;2.70;;;;;;;27.75;40.02;99080.00;5072003;28;20052;-61
2022/07/22 10:17:22;;;;;;;7.10;2.38;;;;;;;27.73;39.29;99085.25;5062338;28;20771;-72
2022/07/22 10:19:48;;;;;;;7.00;3.35;;;;;;;27.76;40.99;99081.56;5053910;28;20604;-70
2022/07/22 10:22:54;;;;;;;5.43;3.30;;;;;;;27.81;39.34;99081.88;5074068;28;20877;-62
2022/07/22 10:25:24;;;;;;;5.22;3.28;;;;;;;27.81;38.52;99079.06;5072425;28;20603;-61
2022/07/22 10:28:04;;;;;;;6.85;3.67;;;;;;;27.82;37.77;99071.44;5085319;28;20047;-70
2022/07/22 10:30:35;;;;;;;6.45;3.70;;;;;;;27.84;37.35;99066.16;5081772;28;20044;-68
2022/07/22 10:33:20;;;;;;;5.30;4.00;;;;;;;27.82;37.16;99063.78;5078589;28;20043;-69
2022/07/22 10:35:51;;;;;;;7.20;4.00;;;;;;;27.82;37.19;99057.38;5080636;28;20608;-75
2022/07/22 10:38:19;;;;;;;7.05;3.63;;;;;;;27.82;36.91;99057.38;5079678;28;20540;-67
2022/07/22 10:40:52;;;;;;;7.75;3.95;;;;;;;27.81;39.34;99047.34;5076459;28;20135;-68
2022/07/22 10:43:29;;;;;;;7.18;3.60;;;;;;;27.85;40.25;99045.25;5076108;28;20148;-62
2022/07/22 10:46:06;;;;;;;5.25;3.42;;;;;;;27.86;39.11;99033.59;5079612;28;20269;-61
2022/07/22 10:48:37;;;;;;;5.88;2.90;;;;;;;27.77;40.67;99032.56;5082486;28;20155;-59
2022/07/22 10:51:19;;;;;;;5.80;3.00;;;;;;;27.77;39.85;99027.75;5067347;28;20135;-62
2022/07/22 10:54:03;;;;;;;4.00;2.80;;;;;;;27.74;38.63;99027.81;5069530;28;20047;-69
2022/07/22 10:56:34;;;;;;;3.85;2.75;;;;;;;27.76;41.25;99025.38;5068636;28;20034;-65
2022/07/22 10:59:16;;;;;;;4.47;2.63;;;;;;;27.78;40.06;99012.47;5071428;28;20044;-65
2022/07/22 11:01:47;;;;;;;3.35;2.50;;;;;;;27.70;40.47;99006.19;5071500;28;20102;-60
2022/07/22 11:04:17;;;;;;;3.80;2.38;;;;;;;27.75;41.45;99004.13;5063870;28;20455;-59
2022/07/22 11:06:44;;;;;;;3.78;2.78;;;;;;;27.70;39.61;99003.38;5072681;28;20044;-58
2022/07/22 11:09:12;;;;;;;3.78;2.40;;;;;;;27.69;41.17;99001.81;5072036;28;20051;-59
2022/07/22 11:11:38;;;;;;;5.95;2.70;;;;;;;27.78;41.20;98992.78;5078160;28;20671;-60
2022/07/22 11:14:11;;;;;;;3.28;2.20;;;;;;;27.73;39.66;98986.91;5067748;28;20125;-65
2022/07/22 11:16:37;;;;;;;4.00;2.40;;;;;;;27.68;40.61;98985.38;5069678;28;20051;-62
2022/07/22 11:19:02;;;;;;;6.18;2.05;;;;;;;27.73;41.31;98984.88;5077458;28;20039;-62
2022/07/22 11:21:33;;;;;;;6.97;2.47;;;;;;;27.79;40.46;98977.53;5069091;28;20424;-62
2022/07/22 11:24:02;;;;;;;5.65;2.10;;;;;;;27.71;39.36;98970.44;5069169;28;20044;-65
2022/07/22 11:26:44;;;;;;;3.42;2.10;;;;;;;27.70;40.75;98968.88;5074538;28;20043;-64
2022/07/22 11:29:24;;;;;;;3.30;2.20;;;;;;;27.73;39.51;98958.81;5067582;28;20040;-62
2022/07/22 11:31:49;;;;;;;5.47;2.28;;;;;;;27.66;40.32;98960.50;5072037;28;20134;-60